Station: EHBK - 29/11/2020 16:55Z (il y a 24 minutes)
EHBK 291655Z AUTO 06007KT 9999 NCD M01/M03 Q1025 NOSIG
Vent du 060º - 7 kt
Visibilité > 10 km
Pas de nuages détectés
Température: -01ºC - Point de rosée: -03ºC - QNH: 1025 hPa
Pas de changement significatif prévu dans les 2 heures qui suivent l'observation